Time;durP1;ratioP1;P1;durP2;ratioP2;P2;SDS_P1;SDS_P2;PMS_P1;PMS_P2;Temp;Humidity;BMP_temperature;BMP_pressure;BME280_temperature;BME280_humidity;BME280_pressure;Samples;Min_cycle;Max_cycle;Signal;HPM_P1;HPM_P2
2020/12/07 00:02:26;;;;;;;8.57;7.90;;;;;;;9.62;60.74;98183.50;10422602;28;20046;-68
2020/12/07 00:07:27;;;;;;;7.80;7.10;;;;;;;9.78;60.04;98202.66;10421943;28;20048;-67
2020/12/07 00:12:29;;;;;;;8.18;7.47;;;;;;;9.67;60.45;98198.06;10435581;22;20068;-69
2020/12/07 00:17:32;;;;;;;8.98;8.27;;;;;;;9.51;60.95;98166.59;10418726;28;20095;-68
2020/12/07 00:22:33;;;;;;;8.73;8.02;;;;;;;9.65;60.71;98178.06;10418582;28;20053;-69
2020/12/07 00:27:35;;;;;;;8.07;7.47;;;;;;;9.66;60.46;98187.66;10419769;28;20048;-68
2020/12/07 00:32:37;;;;;;;8.35;7.72;;;;;;;9.74;60.17;98180.16;10419121;28;20124;-68
2020/12/07 00:37:38;;;;;;;9.15;8.35;;;;;;;9.72;60.31;98172.38;10419812;28;20049;-68
2020/12/07 00:42:39;;;;;;;8.70;8.00;;;;;;;9.81;60.22;98179.72;10419400;28;20467;-68
2020/12/07 00:47:41;;;;;;;9.20;8.50;;;;;;;9.86;60.07;98185.53;10418395;28;20044;-68
2020/12/07 00:52:42;;;;;;;8.75;7.88;;;;;;;9.81;60.24;98189.38;10419108;28;20067;-68
2020/12/07 00:57:44;;;;;;;9.13;8.43;;;;;;;9.70;60.77;98171.66;10417157;28;20073;-68
2020/12/07 01:02:46;;;;;;;8.60;7.90;;;;;;;9.81;60.19;98168.38;10417105;28;20045;-68
2020/12/07 01:07:48;;;;;;;9.23;8.43;;;;;;;9.86;60.19;98155.84;10416393;28;20054;-68
2020/12/07 01:12:49;;;;;;;8.75;7.95;;;;;;;9.82;60.19;98149.91;10416370;28;20049;-67
2020/12/07 01:17:51;;;;;;;9.43;8.63;;;;;;;9.73;60.58;98155.72;10418446;28;20099;-69
2020/12/07 01:22:54;;;;;;;9.50;8.75;;;;;;;9.67;60.82;98155.22;10416310;28;20095;-68
2020/12/07 01:27:56;;;;;;;10.07;9.10;;;;;;;9.75;60.47;98134.66;10415968;28;20046;-67
2020/12/07 01:32:59;;;;;;;9.73;8.82;;;;;;;9.77;60.42;98133.59;10417573;28;20042;-68
2020/12/07 01:38:02;;;;;;;9.18;8.27;;;;;;;9.59;60.92;98129.44;10415198;28;20125;-68
2020/12/07 01:43:04;;;;;;;12.77;9.07;;;;;;;9.72;60.65;98130.41;10415031;28;20125;-69
2020/12/07 01:48:09;;;;;;;10.07;9.27;;;;;;;9.77;60.31;98124.91;10415127;28;20064;-69
2020/12/07 01:53:10;;;;;;;9.05;8.25;;;;;;;9.74;60.27;98141.69;10416034;28;20509;-68
2020/12/07 01:58:12;;;;;;;9.20;8.50;;;;;;;9.76;60.25;98125.84;10416676;28;20041;-67
2020/12/07 02:03:13;;;;;;;7.65;7.05;;;;;;;9.76;60.03;98125.84;10414858;28;20052;-68
2020/12/07 02:08:19;;;;;;;9.13;8.32;;;;;;;9.81;59.93;98142.16;10414734;28;20080;-67
2020/12/07 02:13:53;;;;;;;8.05;7.35;;;;;;;9.75;60.14;98135.50;10404950;28;20118;-68
2020/12/07 02:18:58;;;;;;;8.75;8.05;;;;;;;9.86;60.05;98130.44;10413627;28;20045;-68
2020/12/07 02:24:03;;;;;;;8.27;7.50;;;;;;;9.85;59.83;98144.50;10415236;28;20107;-68
2020/12/07 02:29:07;;;;;;;8.55;7.82;;;;;;;9.86;59.84;98150.59;10457199;28;20066;-68
2020/12/07 02:34:16;;;;;;;8.75;7.90;;;;;;;9.68;60.36;98146.41;10438146;28;20053;-71
2020/12/07 02:39:21;;;;;;;9.32;8.48;;;;;;;9.79;60.07;98142.25;10439359;28;20441;-68
2020/12/07 02:44:28;;;;;;;9.05;8.30;;;;;;;9.83;60.15;98153.41;10439240;28;20045;-68
2020/12/07 02:49:34;;;;;;;8.67;7.90;;;;;;;9.76;60.15;98152.06;10439143;28;20067;-68
2020/12/07 02:54:36;;;;;;;9.25;8.45;;;;;;;9.72;60.26;98151.41;10438398;28;20079;-69
2020/12/07 02:59:42;;;;;;;9.57;8.13;;;;;;;9.79;59.83;98128.28;10439043;28;20060;-67
2020/12/07 03:04:43;;;;;;;8.82;7.93;;;;;;;9.77;60.02;98133.59;10456191;28;20418;-68
2020/12/07 03:09:45;;;;;;;8.82;7.97;;;;;;;9.73;60.18;98141.75;10437397;28;20072;-68
2020/12/07 03:14:47;;;;;;;8.18;7.47;;;;;;;9.75;60.03;98119.75;10437597;28;20095;-69
2020/12/07 03:19:48;;;;;;;9.43;8.68;;;;;;;9.77;60.11;98112.63;10437584;28;20150;-67
2020/12/07 03:24:50;;;;;;;8.75;8.05;;;;;;;9.79;59.95;98123.03;10438100;28;20048;-68
2020/12/07 03:29:52;;;;;;;9.40;8.70;;;;;;;9.54;60.55;98116.59;10437321;28;20141;-67
2020/12/07 03:34:55;;;;;;;9.48;8.65;;;;;;;9.57;60.46;98115.59;10443461;28;20477;-68
2020/12/07 03:39:58;;;;;;;9.05;8.30;;;;;;;9.70;60.24;98120.97;10444274;28;20132;-68
2020/12/07 03:45:07;;;;;;;9.70;9.00;;;;;;;9.82;59.69;98107.94;10444008;28;20045;-67
2020/12/07 03:50:10;;;;;;;10.05;9.15;;;;;;;9.81;59.87;98102.78;10444283;28;20065;-68
2020/12/07 03:55:16;;;;;;;9.63;8.90;;;;;;;9.79;59.85;98092.41;10443959;28;20091;-68
2020/12/07 04:00:17;;;;;;;9.18;8.48;;;;;;;9.72;59.97;98096.31;10442942;28;20571;-67
2020/12/07 04:05:34;;;;;;;9.68;8.82;;;;;;;9.78;59.83;98090.72;10444379;28;20063;-67
2020/12/07 04:10:37;;;;;;;9.38;8.68;;;;;;;9.90;59.64;98117.97;10442588;28;20045;-67
2020/12/07 04:15:38;;;;;;;9.02;8.30;;;;;;;9.93;59.38;98122.22;10460499;28;20045;-67
2020/12/07 04:21:00;;;;;;;10.60;9.77;;;;;;;9.93;59.48;98140.59;10461503;28;20095;-67
2020/12/07 04:26:01;;;;;;;10.30;9.50;;;;;;;9.76;60.13;98167.81;10460646;28;20490;-67
2020/12/07 04:31:02;;;;;;;10.60;9.80;;;;;;;9.85;59.94;98168.13;10460474;28;20045;-67
2020/12/07 04:36:04;;;;;;;11.05;9.93;;;;;;;9.88;59.80;98169.72;10442429;28;20068;-68
2020/12/07 04:41:06;;;;;;;11.52;10.60;;;;;;;9.76;60.03;98168.66;10441406;28;20041;-67
2020/12/07 04:46:07;;;;;;;10.70;9.90;;;;;;;9.90;59.94;98170.47;10458672;28;20045;-67
2020/12/07 04:51:09;;;;;;;11.70;10.65;;;;;;;9.67;60.56;98168.34;10459189;28;20041;-67
2020/12/07 04:56:11;;;;;;;11.15;10.35;;;;;;;9.61;60.97;98182.69;10458917;28;20055;-67
2020/12/07 05:01:12;;;;;;;11.40;10.45;;;;;;;9.71;60.57;98191.69;10458182;28;20052;-67
2020/12/07 05:06:18;;;;;;;11.77;10.77;;;;;;;9.76;60.30;98201.94;10440369;28;20045;-68
2020/12/07 05:11:19;;;;;;;13.23;11.82;;;;;;;9.66;60.91;98195.53;10459181;28;20067;-67
2020/12/07 05:16:23;;;;;;;12.05;11.05;;;;;;;9.66;60.71;98209.47;10458929;28;20052;-67
2020/12/07 05:21:24;;;;;;;11.77;10.88;;;;;;;9.71;60.69;98228.44;10457767;28;20060;-67
2020/12/07 05:26:26;;;;;;;12.10;11.13;;;;;;;9.71;60.58;98231.06;10458418;28;20055;-67
2020/12/07 05:31:33;;;;;;;12.98;11.93;;;;;;;9.63;60.93;98232.41;10457053;28;20120;-67
2020/12/07 05:36:34;;;;;;;13.30;12.35;;;;;;;9.58;61.01;98235.31;10457477;28;20049;-65
2020/12/07 05:41:36;;;;;;;12.10;11.25;;;;;;;9.57;60.92;98250.19;10457539;28;20056;-64
2020/12/07 05:46:39;;;;;;;12.40;11.30;;;;;;;9.56;61.19;98264.25;10458276;28;20049;-62
2020/12/07 05:51:47;;;;;;;12.98;11.98;;;;;;;9.53;61.17;98253.91;10456944;28;20067;-61
2020/12/07 05:56:51;;;;;;;14.68;13.30;;;;;;;9.27;62.07;98281.56;10456617;28;20041;-61
2020/12/07 06:01:52;;;;;;;13.38;12.32;;;;;;;9.46;61.32;98268.28;10456523;28;20056;-63
2020/12/07 06:07:02;;;;;;;14.20;12.95;;;;;;;9.48;61.51;98295.31;10457700;28;20047;-62
2020/12/07 06:12:13;;;;;;;13.52;12.40;;;;;;;9.55;61.17;98309.75;10475232;22;20057;-68
2020/12/07 06:17:24;;;;;;;14.20;12.95;;;;;;;9.46;61.49;98312.03;10541889;28;20066;-67
2020/12/07 06:22:26;;;;;;;14.63;13.43;;;;;;;9.54;61.12;98310.69;10523034;28;20051;-67
2020/12/07 06:27:27;;;;;;;15.00;13.80;;;;;;;9.54;61.29;98331.66;10541833;28;20054;-67
2020/12/07 06:32:51;;;;;;;15.18;14.07;;;;;;;9.53;61.17;98329.16;10523487;28;20132;-67
2020/12/07 06:37:52;;;;;;;14.90;13.50;;;;;;;9.48;61.24;98323.31;10540416;28;20501;-67
2020/12/07 06:42:53;;;;;;;14.50;13.50;;;;;;;9.40;61.58;98325.50;10521833;28;20048;-67
2020/12/07 06:47:54;;;;;;;15.00;13.75;;;;;;;9.39;61.50;98327.28;10542166;28;20431;-69
2020/12/07 06:52:57;;;;;;;15.23;14.18;;;;;;;9.33;61.80;98327.59;10540193;28;20442;-68
2020/12/07 06:57:58;;;;;;;15.05;14.02;;;;;;;9.26;62.18;98331.47;10540155;28;20087;-68
2020/12/07 07:03:00;;;;;;;15.65;14.55;;;;;;;9.27;62.11;98336.63;10540558;28;20051;-68
2020/12/07 07:08:03;;;;;;;16.38;15.00;;;;;;;9.16;62.46;98338.97;10546732;28;20369;-67
2020/12/07 07:13:04;;;;;;;16.08;14.77;;;;;;;9.24;62.45;98342.03;10548121;28;20052;-67
2020/12/07 07:18:05;;;;;;;16.70;15.25;;;;;;;9.23;62.26;98350.84;10549095;28;20046;-67
2020/12/07 07:23:10;;;;;;;16.02;14.82;;;;;;;8.98;63.16;98374.84;10548045;28;20036;-68
2020/12/07 07:28:11;;;;;;;16.35;14.90;;;;;;;9.04;62.85;98392.06;10548022;28;20047;-68
2020/12/07 07:33:12;;;;;;;15.70;14.50;;;;;;;9.21;62.54;98402.53;10547955;28;20040;-68
2020/12/07 07:38:15;;;;;;;16.85;15.55;;;;;;;8.97;63.06;98394.13;10530142;28;20044;-68
2020/12/07 07:43:16;;;;;;;15.60;14.50;;;;;;;8.97;63.17;98393.28;10548011;28;20413;-68
2020/12/07 07:48:22;;;;;;;16.25;14.95;;;;;;;9.10;62.82;98413.53;10549556;28;20032;-68
2020/12/07 08:20:49;;;;;;;16.63;15.25;;;;;;;9.32;62.52;98468.34;10376509;28;20049;-67
2020/12/07 08:25:51;;;;;;;16.30;15.05;;;;;;;9.30;62.45;98472.00;10377270;28;20095;-68
2020/12/07 08:31:13;;;;;;;15.40;14.27;;;;;;;9.31;62.57;98492.88;10376120;28;20089;-67
2020/12/07 08:36:16;;;;;;;16.48;15.18;;;;;;;9.20;63.02;98495.19;10377342;28;20384;-68
2020/12/07 08:41:23;;;;;;;16.52;14.98;;;;;;;9.27;62.76;98487.88;10514284;28;20127;-68
2020/12/07 08:46:26;;;;;;;14.85;13.77;;;;;;;9.35;62.67;98504.06;10545705;28;20046;-67
2020/12/07 08:51:30;;;;;;;15.70;14.55;;;;;;;9.13;63.20;98496.44;10527209;28;20040;-68
2020/12/07 08:56:31;;;;;;;15.00;13.88;;;;;;;9.10;63.69;98483.47;10545339;28;20413;-68
2020/12/07 09:01:32;;;;;;;15.02;13.82;;;;;;;9.10;63.38;98497.41;10544863;28;20174;-68
2020/12/07 09:06:33;;;;;;;15.90;14.73;;;;;;;9.12;63.54;98507.84;10545644;28;20060;-68
2020/12/07 09:11:35;;;;;;;15.48;14.27;;;;;;;8.78;64.55;98504.28;10526238;28;20048;-68
2020/12/07 09:16:36;;;;;;;15.48;14.30;;;;;;;8.99;63.89;98517.25;10546037;28;20047;-67
2020/12/07 09:21:38;;;;;;;15.82;14.63;;;;;;;9.15;63.53;98519.94;10544195;28;20095;-67
2020/12/07 09:26:39;;;;;;;14.93;13.90;;;;;;;9.07;63.79;98526.44;10544118;28;20497;-68
2020/12/07 09:31:40;;;;;;;16.00;14.88;;;;;;;9.02;63.76;98531.03;10543192;28;20097;-67
2020/12/07 09:36:41;;;;;;;16.17;14.98;;;;;;;9.05;63.95;98535.28;10543759;28;20138;-67
2020/12/07 09:41:42;;;;;;;16.40;14.98;;;;;;;8.99;64.00;98518.09;10542958;28;20043;-67
2020/12/07 09:46:43;;;;;;;16.42;15.13;;;;;;;9.16;63.21;98539.97;10524096;28;20076;-68
2020/12/07 09:51:44;;;;;;;16.58;15.13;;;;;;;9.20;63.16;98531.03;10542327;28;20044;-67
2020/12/07 09:56:45;;;;;;;16.02;14.82;;;;;;;9.15;63.55;98533.88;10541219;28;20059;-68
2020/12/07 10:01:46;;;;;;;16.45;15.35;;;;;;;9.12;63.51;98536.69;10541860;28;20093;-68
2020/12/07 10:06:47;;;;;;;17.55;16.00;;;;;;;9.19;63.20;98547.69;10523379;28;20408;-68
2020/12/07 10:11:49;;;;;;;16.42;15.23;;;;;;;9.32;62.64;98551.41;10541702;28;20481;-69
2020/12/07 10:16:50;;;;;;;16.42;15.10;;;;;;;9.20;63.25;98562.50;10542264;28;20052;-68
2020/12/07 10:21:52;;;;;;;13.27;12.38;;;;;;;9.05;62.85;98570.19;10541424;28;20062;-68
2020/12/07 10:26:54;;;;;;;13.15;12.00;;;;;;;9.09;62.79;98573.53;10541808;28;20052;-68
2020/12/07 10:31:56;;;;;;;13.00;12.10;;;;;;;8.98;63.50;98584.50;10540860;28;20062;-68
2020/12/07 10:36:58;;;;;;;13.32;12.25;;;;;;;9.10;62.96;98588.31;10541428;28;20452;-68
2020/12/07 10:42:01;;;;;;;11.85;11.05;;;;;;;8.97;63.22;98595.09;10540915;28;20048;-69
2020/12/07 10:47:03;;;;;;;14.13;13.00;;;;;;;8.90;62.84;98602.41;10540927;28;20048;-68
2020/12/07 10:52:04;;;;;;;14.98;13.88;;;;;;;8.87;62.73;98614.78;10540473;28;20069;-69
2020/12/07 10:57:05;;;;;;;12.82;11.90;;;;;;;8.52;63.33;98627.75;10522392;28;20489;-68
2020/12/07 11:02:09;;;;;;;12.98;12.07;;;;;;;8.49;63.21;98628.75;10520825;28;20037;-67
2020/12/07 11:07:16;;;;;;;12.68;11.70;;;;;;;8.47;62.85;98632.38;10516704;28;20044;-68
2020/12/07 11:12:21;;;;;;;12.02;10.93;;;;;;;8.54;61.78;98634.66;10521965;28;20109;-68
2020/12/07 11:17:22;;;;;;;8.27;7.57;;;;;;;8.47;60.61;98633.22;10538778;28;20047;-69
2020/12/07 11:22:23;;;;;;;8.48;7.82;;;;;;;8.56;60.70;98617.06;10539587;28;20181;-69
2020/12/07 11:27:24;;;;;;;8.55;6.95;;;;;;;8.62;60.50;98615.09;10540142;28;20078;-69
2020/12/07 11:32:25;;;;;;;7.30;6.70;;;;;;;8.79;59.59;98618.63;10539294;28;20048;-68
2020/12/07 11:37:27;;;;;;;8.32;7.63;;;;;;;9.03;59.16;98620.97;10522799;28;20470;-68
2020/12/07 11:42:55;;;;;;;8.73;6.45;;;;;;;9.25;58.24;98615.56;10539868;28;20493;-69
2020/12/07 11:47:50;;;;;;;6.38;5.75;;;;;;;9.32;57.83;98616.97;10540379;28;20392;-69
2020/12/07 11:52:51;;;;;;;7.18;6.68;;;;;;;9.15;58.79;98609.06;10540970;28;20047;-69
2020/12/07 11:57:52;;;;;;;7.05;6.45;;;;;;;9.59;57.28;98615.59;10546633;28;20128;-67
2020/12/07 12:02:54;;;;;;;5.60;5.10;;;;;;;9.91;55.08;98618.34;10543563;28;20127;-68
2020/12/07 12:07:55;;;;;;;4.35;3.95;;;;;;;9.89;54.03;98622.81;10546526;28;20497;-68
2020/12/07 12:12:56;;;;;;;5.20;4.70;;;;;;;10.34;53.71;98616.13;10561339;22;20040;-64
2020/12/07 12:17:57;;;;;;;5.00;3.88;;;;;;;10.89;51.99;98614.88;10501704;28;20128;-63
2020/12/07 12:22:58;;;;;;;4.82;3.55;;;;;;;11.08;51.14;98612.94;10501565;28;20045;-63
2020/12/07 12:27:59;;;;;;;3.38;1.80;;;;;;;10.48;49.60;98612.75;10501281;28;20044;-63
2020/12/07 12:33:00;;;;;;;2.50;2.30;;;;;;;10.24;49.74;98617.53;10500668;28;20393;-63
2020/12/07 12:38:02;;;;;;;2.88;2.40;;;;;;;10.18;50.35;98620.44;10500726;28;20079;-64
2020/12/07 12:43:03;;;;;;;2.97;2.25;;;;;;;10.07;50.35;98631.53;10501740;28;20067;-63
2020/12/07 12:48:04;;;;;;;1.80;1.50;;;;;;;10.02;49.62;98626.53;10500230;28;20044;-63
2020/12/07 12:53:05;;;;;;;2.30;1.40;;;;;;;9.85;50.51;98627.38;10499973;28;20059;-64
2020/12/07 12:58:07;;;;;;;3.85;2.10;;;;;;;9.82;50.38;98630.16;10499619;28;20111;-64
2020/12/07 13:03:08;;;;;;;2.65;1.52;;;;;;;9.88;49.68;98638.66;10481938;28;20097;-64
2020/12/07 13:08:09;;;;;;;1.50;1.40;;;;;;;9.84;50.09;98646.69;10500420;28;20044;-64
2020/12/07 13:13:10;;;;;;;2.03;1.83;;;;;;;9.64;50.68;98659.09;10500387;28;20409;-63
2020/12/07 13:18:12;;;;;;;1.60;1.50;;;;;;;9.62;51.84;98661.81;10481060;28;20047;-63
2020/12/07 13:23:33;;;;;;;3.83;2.33;;;;;;;9.73;50.64;98662.13;10499123;28;20059;-64
2020/12/07 13:28:34;;;;;;;2.78;1.70;;;;;;;9.82;50.65;98673.91;10499537;28;20060;-64
2020/12/07 13:33:40;;;;;;;2.45;1.80;;;;;;;9.75;49.80;98680.44;10500572;28;20060;-64
2020/12/07 13:38:41;;;;;;;4.70;2.35;;;;;;;9.47;50.07;98686.16;10500208;28;20033;-64
2020/12/07 13:43:43;;;;;;;3.05;1.73;;;;;;;9.34;50.42;98689.41;10499325;28;20068;-64
2020/12/07 13:48:44;;;;;;;3.28;1.23;;;;;;;9.40;49.66;98684.78;10499449;28;20072;-64
2020/12/07 13:53:47;;;;;;;1.80;1.35;;;;;;;9.07;51.03;98707.28;10498162;28;20491;-64
2020/12/07 13:58:48;;;;;;;3.53;1.63;;;;;;;9.03;51.05;98715.34;10471938;28;20141;-64
2020/12/07 14:04:03;;;;;;;3.22;1.73;;;;;;;8.95;51.49;98723.59;10476806;28;20510;-64
2020/12/07 14:09:07;;;;;;;1.70;1.60;;;;;;;8.83;51.12;98724.97;10456325;28;20504;-65
2020/12/07 14:14:08;;;;;;;2.13;1.92;;;;;;;8.75;51.41;98741.97;10455462;28;20067;-64
2020/12/07 14:19:16;;;;;;;2.63;2.05;;;;;;;8.31;52.44;98747.34;10465860;28;20516;-64
2020/12/07 14:24:42;;;;;;;2.17;1.98;;;;;;;8.40;52.04;98760.09;10496927;28;20144;-63
2020/12/07 14:40:09;;;;;;;3.55;3.25;;;;;;;7.93;53.77;98760.31;10496464;28;20050;-64
2020/12/07 14:45:23;;;;;;;4.53;3.83;;;;;;;7.86;54.53;98755.38;10496029;28;20078;-64
2020/12/07 14:50:34;;;;;;;3.88;3.58;;;;;;;7.69;54.89;98764.75;10495955;28;20044;-64
2020/12/07 14:55:49;;;;;;;4.72;3.88;;;;;;;7.46;55.84;98770.06;10479343;28;20052;-64
2020/12/07 15:05:52;;;;;;;5.30;4.90;;;;;;;7.16;56.77;98796.47;10478219;28;20442;-65
2020/12/07 15:16:21;;;;;;;8.70;6.43;;;;;;;6.99;57.55;98809.28;10496559;28;20059;-64
2020/12/07 15:21:24;;;;;;;8.65;7.78;;;;;;;6.76;58.11;98807.53;10496209;28;20399;-65
2020/12/07 15:26:26;;;;;;;10.57;9.48;;;;;;;6.68;58.46;98804.31;10496681;28;20055;-65
2020/12/07 15:31:27;;;;;;;9.95;9.05;;;;;;;6.35;59.24;98806.38;10503416;28;20033;-64
2020/12/07 15:36:28;;;;;;;11.23;10.18;;;;;;;6.05;60.06;98809.94;10503560;28;20072;-63
2020/12/07 15:41:29;;;;;;;11.00;10.10;;;;;;;6.09;60.35;98812.47;10485426;28;20040;-64
2020/12/07 15:46:36;;;;;;;14.57;9.98;;;;;;;6.15;60.01;98827.91;10501632;28;20052;-65
2020/12/07 15:51:37;;;;;;;9.25;8.45;;;;;;;5.87;60.65;98835.75;10504085;28;20439;-65
2020/12/07 15:56:38;;;;;;;9.98;9.07;;;;;;;5.65;61.17;98844.25;10502980;28;20049;-65
2020/12/07 16:01:39;;;;;;;9.70;8.90;;;;;;;5.55;61.82;98842.81;10502466;28;20044;-64
2020/12/07 16:06:40;;;;;;;12.88;10.63;;;;;;;5.49;62.22;98846.47;10503106;28;20055;-64
2020/12/07 16:11:42;;;;;;;9.38;8.55;;;;;;;5.69;61.38;98847.59;10485179;28;20036;-64
2020/12/07 16:16:44;;;;;;;10.80;9.70;;;;;;;5.45;61.96;98859.66;10485596;28;20419;-64
2020/12/07 16:21:45;;;;;;;13.35;10.82;;;;;;;5.26;62.76;98861.91;10484098;28;20079;-65
2020/12/07 16:26:52;;;;;;;10.93;9.88;;;;;;;4.84;63.19;98874.41;10502150;28;20072;-65
2020/12/07 16:31:53;;;;;;;11.05;9.77;;;;;;;5.01;63.16;98875.66;10501946;28;20049;-65
2020/12/07 16:36:54;;;;;;;12.23;10.20;;;;;;;5.00;62.98;98879.16;10502032;28;20052;-64
2020/12/07 16:41:56;;;;;;;13.23;10.88;;;;;;;4.80;63.22;98886.66;10501389;28;20075;-65
2020/12/07 16:46:58;;;;;;;12.82;10.85;;;;;;;4.71;63.77;98894.69;10501621;28;20049;-65
2020/12/07 16:52:00;;;;;;;14.25;12.95;;;;;;;4.45;64.39;98898.81;10500870;28;20071;-65
2020/12/07 16:57:01;;;;;;;16.05;14.52;;;;;;;4.35;64.88;98915.56;10500656;28;20055;-64
2020/12/07 17:02:04;;;;;;;17.20;15.60;;;;;;;4.36;64.58;98925.06;10501834;28;20044;-64
2020/12/07 17:07:05;;;;;;;21.27;19.10;;;;;;;4.39;64.42;98931.97;10507229;28;20040;-64
2020/12/07 17:12:06;;;;;;;18.00;16.35;;;;;;;4.20;64.92;98929.78;10500273;28;20410;-65
2020/12/07 17:17:08;;;;;;;17.38;15.88;;;;;;;4.04;65.51;98939.69;10503886;28;20094;-66
2020/12/07 17:22:09;;;;;;;17.13;15.73;;;;;;;3.96;66.23;98930.34;10500075;28;20403;-66
2020/12/07 17:27:10;;;;;;;16.45;15.15;;;;;;;3.90;65.95;98927.91;10499343;28;20127;-63
2020/12/07 17:32:12;;;;;;;17.35;15.85;;;;;;;4.13;66.05;98922.16;10482463;28;20047;-65
2020/12/07 17:37:13;;;;;;;22.80;15.85;;;;;;;4.15;65.33;98928.19;10498924;28;20119;-64
2020/12/07 17:42:16;;;;;;;17.33;15.82;;;;;;;4.11;65.89;98939.53;10498365;28;20036;-65
2020/12/07 17:47:17;;;;;;;18.10;16.33;;;;;;;4.66;64.98;98940.81;10480092;28;20048;-64
2020/12/07 17:52:18;;;;;;;15.13;13.93;;;;;;;4.47;65.29;98953.41;10498155;28;20509;-66
2020/12/07 17:57:20;;;;;;;18.05;16.45;;;;;;;4.47;66.05;98941.28;10498896;28;20131;-65
2020/12/07 18:02:24;;;;;;;18.45;16.77;;;;;;;4.39;66.00;98945.81;10499195;28;20048;-66
2020/12/07 18:07:26;;;;;;;18.92;17.30;;;;;;;4.44;65.98;98956.97;10498735;28;20040;-65
2020/12/07 18:12:27;;;;;;;45.80;22.55;;;;;;;4.71;65.36;98952.81;10498036;28;20041;-65
2020/12/07 18:17:28;;;;;;;27.60;20.05;;;;;;;4.97;64.88;98957.38;10493588;23;20049;-65
2020/12/07 18:22:29;;;;;;;33.65;23.88;;;;;;;4.65;65.39;98949.50;10505166;28;20135;-66
2020/12/07 18:27:30;;;;;;;26.20;22.45;;;;;;;4.92;64.81;98959.25;10505263;28;20048;-66
2020/12/07 18:32:32;;;;;;;23.02;20.80;;;;;;;4.85;65.21;98955.06;10504073;28;20063;-66
2020/12/07 18:37:33;;;;;;;19.50;17.85;;;;;;;4.94;65.01;98961.78;10504834;28;20045;-66
2020/12/07 18:42:34;;;;;;;20.58;18.70;;;;;;;4.88;65.18;98955.00;10484846;28;20040;-64
2020/12/07 18:47:35;;;;;;;19.05;17.45;;;;;;;4.80;65.41;98944.78;10506910;28;20050;-66
2020/12/07 18:52:36;;;;;;;17.25;15.65;;;;;;;5.07;64.97;98937.97;10503021;28;20147;-65
2020/12/07 18:57:38;;;;;;;15.68;14.48;;;;;;;5.34;64.07;98942.47;10503272;28;20071;-65
2020/12/07 19:02:40;;;;;;;15.02;13.75;;;;;;;5.15;64.52;98944.75;10505828;28;20090;-66
2020/12/07 19:07:41;;;;;;;14.00;12.70;;;;;;;4.98;64.80;98953.84;10491549;28;20537;-67
2020/12/07 19:12:43;;;;;;;11.13;10.15;;;;;;;5.07;64.63;98951.00;10513155;28;20040;-66
2020/12/07 19:17:44;;;;;;;11.85;10.95;;;;;;;5.14;64.45;98949.09;10516492;28;20064;-65
2020/12/07 19:22:46;;;;;;;10.43;9.63;;;;;;;5.00;64.43;98964.22;10514547;28;20045;-67
2020/12/07 19:27:53;;;;;;;10.60;9.68;;;;;;;4.89;64.86;98958.47;10515126;28;20059;-66
2020/12/07 19:32:55;;;;;;;9.52;8.75;;;;;;;5.09;64.45;98957.91;10492987;28;20048;-66
2020/12/07 19:37:56;;;;;;;12.75;11.73;;;;;;;5.26;63.86;98973.94;10512387;28;20041;-67
2020/12/07 19:42:57;;;;;;;15.25;12.50;;;;;;;5.18;64.17;98984.59;10509144;28;20040;-67
2020/12/07 19:47:58;;;;;;;12.23;11.23;;;;;;;5.23;63.87;98987.06;10508983;28;20100;-67
2020/12/07 19:53:00;;;;;;;9.65;8.85;;;;;;;5.12;64.03;98987.34;10511857;28;20045;-66
2020/12/07 19:58:01;;;;;;;9.77;8.88;;;;;;;5.06;64.23;98993.59;10511605;28;20041;-66
2020/12/07 20:03:02;;;;;;;8.43;7.72;;;;;;;5.13;63.86;98977.78;10491246;28;20040;-66
2020/12/07 20:08:05;;;;;;;9.27;8.52;;;;;;;5.17;63.54;98984.63;10508307;28;20470;-65
2020/12/07 20:13:06;;;;;;;8.90;8.20;;;;;;;5.16;63.82;98993.34;10507025;28;20485;-65
2020/12/07 20:18:08;;;;;;;8.65;7.95;;;;;;;5.29;63.28;98981.69;10507456;28;20394;-65
2020/12/07 20:23:09;;;;;;;7.10;6.50;;;;;;;5.21;63.28;98981.88;10508857;28;20416;-66
2020/12/07 20:28:10;;;;;;;8.93;8.23;;;;;;;5.26;62.95;98979.16;10489617;28;20464;-65
2020/12/07 20:33:11;;;;;;;7.53;6.85;;;;;;;5.10;63.49;98975.28;10506508;28;20049;-66
2020/12/07 20:38:13;;;;;;;8.05;7.43;;;;;;;5.09;63.41;98970.94;10508185;28;20051;-65
2020/12/07 20:43:14;;;;;;;8.80;8.10;;;;;;;5.13;63.44;98969.97;10507311;28;20143;-64
2020/12/07 20:48:15;;;;;;;9.25;7.75;;;;;;;5.25;63.00;98967.03;10489310;28;20047;-66
2020/12/07 20:53:16;;;;;;;8.93;8.32;;;;;;;5.18;63.17;98965.47;10488050;28;20063;-66
2020/12/07 20:58:17;;;;;;;8.52;7.82;;;;;;;4.95;64.10;98963.50;10506379;28;20040;-65
2020/12/07 21:03:18;;;;;;;9.30;8.50;;;;;;;4.91;64.26;98962.72;10506247;28;20059;-67
2020/12/07 21:08:20;;;;;;;8.63;7.70;;;;;;;4.81;64.64;98967.31;10506339;28;20040;-66
2020/12/07 21:13:21;;;;;;;8.70;7.95;;;;;;;4.89;64.30;98959.31;10505289;28;20413;-66
2020/12/07 21:18:22;;;;;;;8.90;8.00;;;;;;;4.95;64.20;98968.69;10504072;28;20358;-66
2020/12/07 21:23:23;;;;;;;9.70;8.93;;;;;;;5.09;63.80;98947.50;10505202;28;20457;-66
2020/12/07 21:28:24;;;;;;;9.10;8.30;;;;;;;4.75;64.65;98951.84;10505786;28;20182;-66
2020/12/07 21:33:26;;;;;;;9.43;8.68;;;;;;;5.16;63.81;98947.28;10505452;28;20044;-67
2020/12/07 21:38:27;;;;;;;8.73;8.05;;;;;;;5.21;63.50;98940.19;10486949;28;20413;-66
2020/12/07 21:43:28;;;;;;;9.48;8.63;;;;;;;5.30;63.38;98957.34;10503171;28;20048;-66
2020/12/07 21:48:29;;;;;;;8.77;8.00;;;;;;;5.44;62.90;98943.91;10485612;28;20044;-65
2020/12/07 21:53:30;;;;;;;8.10;7.47;;;;;;;5.15;63.84;98943.00;10503996;28;20167;-65
2020/12/07 21:58:33;;;;;;;9.68;8.88;;;;;;;5.01;64.29;98953.78;10503481;28;20044;-66
2020/12/07 22:03:34;;;;;;;11.15;9.68;;;;;;;4.98;64.54;98946.03;10503386;28;20052;-66
2020/12/07 22:08:36;;;;;;;10.18;9.27;;;;;;;4.89;64.69;98942.84;10503982;28;20393;-66
2020/12/07 22:13:38;;;;;;;10.23;9.52;;;;;;;5.25;63.93;98948.78;10502803;28;20136;-66
2020/12/07 22:18:39;;;;;;;10.45;9.32;;;;;;;5.19;63.82;98936.81;10485623;28;20079;-66
2020/12/07 22:23:40;;;;;;;10.75;9.85;;;;;;;5.21;63.93;98953.22;10502203;28;20040;-66
2020/12/07 22:28:41;;;;;;;10.77;9.88;;;;;;;5.42;63.23;98951.78;10502862;28;20095;-64
2020/12/07 22:33:43;;;;;;;10.10;9.32;;;;;;;5.22;63.83;98952.34;10502989;28;20045;-67
2020/12/07 22:38:44;;;;;;;9.75;8.95;;;;;;;4.94;64.49;98936.59;10503085;28;20041;-68
2020/12/07 22:43:46;;;;;;;9.32;8.52;;;;;;;4.99;64.30;98937.31;10502431;28;20479;-65
2020/12/07 22:48:48;;;;;;;9.05;8.35;;;;;;;4.78;64.85;98930.97;10503998;28;20083;-66
2020/12/07 22:53:49;;;;;;;10.10;9.30;;;;;;;4.91;64.42;98926.25;10503331;28;20037;-67
2020/12/07 22:58:51;;;;;;;12.23;11.23;;;;;;;4.87;64.42;98913.34;10486387;28;20049;-67
2020/12/07 23:03:55;;;;;;;11.52;10.52;;;;;;;5.14;63.88;98897.00;10484879;28;20498;-66
2020/12/07 23:08:56;;;;;;;10.27;9.48;;;;;;;5.37;63.30;98898.94;10500940;28;20046;-65
2020/12/07 23:13:57;;;;;;;10.25;9.45;;;;;;;5.27;63.54;98911.41;10500566;28;20053;-67
2020/12/07 23:18:58;;;;;;;10.13;9.32;;;;;;;5.25;63.38;98907.97;10502225;28;20086;-65
2020/12/07 23:24:03;;;;;;;9.20;8.50;;;;;;;5.19;63.63;98905.53;10501210;28;20048;-67
2020/12/07 23:29:04;;;;;;;8.95;8.23;;;;;;;4.91;64.58;98897.59;10500721;28;20132;-66
2020/12/07 23:34:05;;;;;;;9.95;9.25;;;;;;;4.99;64.58;98906.06;10500917;28;20040;-66
2020/12/07 23:39:06;;;;;;;10.25;9.48;;;;;;;5.29;63.69;98901.75;10500547;28;20048;-66
2020/12/07 23:44:08;;;;;;;9.43;8.65;;;;;;;5.37;63.27;98917.19;10482356;28;20053;-66
2020/12/07 23:49:09;;;;;;;10.50;9.68;;;;;;;5.35;63.66;98913.75;10504808;28;20120;-66
2020/12/07 23:54:10;;;;;;;10.00;9.20;;;;;;;5.36;63.87;98912.88;10508149;28;20159;-65
2020/12/07 23:59:11;;;;;;;10.02;9.02;;;;;;;5.26;64.19;98911.41;10508540;28;20067;-67
